sensor_id;sensor_type;location;lat;lon;timestamp;P1;durP1;ratioP1;P2;durP2;ratioP2
59306;SDS011;47983;53.016;-2.260;2023-08-06T00:01:26;16.38;;;3.55;;
59306;SDS011;47983;53.016;-2.260;2023-08-06T00:03:54;8.05;;;3.80;;
59306;SDS011;47983;53.016;-2.260;2023-08-06T00:06:21;6.68;;;3.72;;
59306;SDS011;47983;53.016;-2.260;2023-08-06T00:08:49;10.23;;;3.35;;
59306;SDS011;47983;53.016;-2.260;2023-08-06T00:11:20;7.55;;;3.40;;
59306;SDS011;47983;53.016;-2.260;2023-08-06T00:13:48;8.85;;;3.35;;
59306;SDS011;47983;53.016;-2.260;2023-08-06T00:16:16;8.95;;;4.25;;
59306;SDS011;47983;53.016;-2.260;2023-08-06T00:18:43;7.40;;;3.28;;
59306;SDS011;47983;53.016;-2.260;2023-08-06T00:21:11;13.25;;;4.07;;
59306;SDS011;47983;53.016;-2.260;2023-08-06T00:23:39;16.48;;;4.75;;
59306;SDS011;47983;53.016;-2.260;2023-08-06T00:26:08;13.93;;;4.13;;
59306;SDS011;47983;53.016;-2.260;2023-08-06T00:28:36;8.00;;;3.65;;
59306;SDS011;47983;53.016;-2.260;2023-08-06T00:31:04;13.27;;;4.25;;
59306;SDS011;47983;53.016;-2.260;2023-08-06T00:33:32;8.50;;;3.80;;
59306;SDS011;47983;53.016;-2.260;2023-08-06T00:36:00;11.40;;;4.43;;
59306;SDS011;47983;53.016;-2.260;2023-08-06T00:38:28;9.65;;;4.05;;
59306;SDS011;47983;53.016;-2.260;2023-08-06T00:40:56;10.75;;;4.15;;
59306;SDS011;47983;53.016;-2.260;2023-08-06T00:43:24;9.57;;;3.72;;
59306;SDS011;47983;53.016;-2.260;2023-08-06T00:45:51;13.82;;;4.40;;
59306;SDS011;47983;53.016;-2.260;2023-08-06T00:48:19;13.32;;;3.83;;
59306;SDS011;47983;53.016;-2.260;2023-08-06T00:50:48;14.50;;;4.82;;
59306;SDS011;47983;53.016;-2.260;2023-08-06T00:53:15;12.55;;;5.05;;
59306;SDS011;47983;53.016;-2.260;2023-08-06T00:55:44;10.65;;;4.15;;
59306;SDS011;47983;53.016;-2.260;2023-08-06T00:58:12;11.63;;;5.10;;
59306;SDS011;47983;53.016;-2.260;2023-08-06T01:00:42;14.25;;;5.22;;
59306;SDS011;47983;53.016;-2.260;2023-08-06T01:03:11;10.35;;;5.20;;
59306;SDS011;47983;53.016;-2.260;2023-08-06T01:05:39;11.85;;;5.72;;
59306;SDS011;47983;53.016;-2.260;2023-08-06T01:16:10;10.38;;;5.07;;
59306;SDS011;47983;53.016;-2.260;2023-08-06T01:18:39;13.97;;;5.63;;
59306;SDS011;47983;53.016;-2.260;2023-08-06T01:21:08;13.02;;;5.30;;
59306;SDS011;47983;53.016;-2.260;2023-08-06T01:23:36;13.90;;;5.50;;
59306;SDS011;47983;53.016;-2.260;2023-08-06T01:26:11;18.60;;;5.55;;
59306;SDS011;47983;53.016;-2.260;2023-08-06T01:31:31;15.43;;;5.33;;
59306;SDS011;47983;53.016;-2.260;2023-08-06T01:34:03;13.25;;;5.40;;
59306;SDS011;47983;53.016;-2.260;2023-08-06T01:36:34;9.68;;;5.72;;
59306;SDS011;47983;53.016;-2.260;2023-08-06T01:39:02;10.98;;;5.93;;
59306;SDS011;47983;53.016;-2.260;2023-08-06T01:41:32;17.10;;;5.63;;
59306;SDS011;47983;53.016;-2.260;2023-08-06T01:43:59;14.65;;;5.93;;
59306;SDS011;47983;53.016;-2.260;2023-08-06T01:46:27;13.95;;;5.00;;
59306;SDS011;47983;53.016;-2.260;2023-08-06T01:48:55;16.52;;;5.95;;
59306;SDS011;47983;53.016;-2.260;2023-08-06T01:51:22;13.13;;;6.18;;
59306;SDS011;47983;53.016;-2.260;2023-08-06T01:53:50;16.10;;;5.57;;
59306;SDS011;47983;53.016;-2.260;2023-08-06T01:56:18;16.58;;;5.18;;
59306;SDS011;47983;53.016;-2.260;2023-08-06T01:58:46;12.57;;;5.57;;
59306;SDS011;47983;53.016;-2.260;2023-08-06T02:01:13;14.70;;;6.15;;
59306;SDS011;47983;53.016;-2.260;2023-08-06T02:03:41;13.80;;;5.88;;
59306;SDS011;47983;53.016;-2.260;2023-08-06T02:06:10;12.93;;;5.47;;
59306;SDS011;47983;53.016;-2.260;2023-08-06T02:08:38;12.27;;;5.00;;
59306;SDS011;47983;53.016;-2.260;2023-08-06T02:11:06;13.70;;;5.28;;
59306;SDS011;47983;53.016;-2.260;2023-08-06T02:13:34;15.02;;;6.32;;
59306;SDS011;47983;53.016;-2.260;2023-08-06T02:16:02;12.70;;;5.82;;
59306;SDS011;47983;53.016;-2.260;2023-08-06T02:18:30;15.52;;;5.78;;
59306;SDS011;47983;53.016;-2.260;2023-08-06T02:20:59;12.98;;;5.78;;
59306;SDS011;47983;53.016;-2.260;2023-08-06T02:23:28;13.77;;;6.05;;
59306;SDS011;47983;53.016;-2.260;2023-08-06T02:25:56;12.25;;;5.30;;
59306;SDS011;47983;53.016;-2.260;2023-08-06T02:28:25;19.80;;;6.13;;
59306;SDS011;47983;53.016;-2.260;2023-08-06T02:30:53;14.70;;;5.72;;
59306;SDS011;47983;53.016;-2.260;2023-08-06T02:33:20;14.75;;;4.63;;
59306;SDS011;47983;53.016;-2.260;2023-08-06T02:35:48;17.48;;;5.10;;
59306;SDS011;47983;53.016;-2.260;2023-08-06T02:38:16;9.65;;;4.25;;
59306;SDS011;47983;53.016;-2.260;2023-08-06T02:40:44;14.02;;;4.47;;
59306;SDS011;47983;53.016;-2.260;2023-08-06T02:43:13;12.50;;;5.10;;
59306;SDS011;47983;53.016;-2.260;2023-08-06T02:45:41;13.55;;;5.43;;
59306;SDS011;47983;53.016;-2.260;2023-08-06T02:48:08;14.00;;;5.40;;
59306;SDS011;47983;53.016;-2.260;2023-08-06T02:50:38;14.32;;;5.90;;
59306;SDS011;47983;53.016;-2.260;2023-08-06T02:53:07;14.40;;;5.63;;
59306;SDS011;47983;53.016;-2.260;2023-08-06T02:55:35;14.02;;;5.13;;
59306;SDS011;47983;53.016;-2.260;2023-08-06T02:58:09;16.30;;;5.45;;
59306;SDS011;47983;53.016;-2.260;2023-08-06T03:00:41;15.48;;;6.93;;
59306;SDS011;47983;53.016;-2.260;2023-08-06T03:03:10;13.80;;;5.38;;
59306;SDS011;47983;53.016;-2.260;2023-08-06T03:05:53;11.23;;;4.82;;
59306;SDS011;47983;53.016;-2.260;2023-08-06T03:08:33;14.25;;;5.28;;
59306;SDS011;47983;53.016;-2.260;2023-08-06T03:11:00;16.25;;;5.57;;
59306;SDS011;47983;53.016;-2.260;2023-08-06T03:13:28;15.15;;;5.30;;
59306;SDS011;47983;53.016;-2.260;2023-08-06T03:15:57;11.85;;;5.07;;
59306;SDS011;47983;53.016;-2.260;2023-08-06T03:18:28;16.73;;;5.53;;
59306;SDS011;47983;53.016;-2.260;2023-08-06T03:20:59;12.93;;;5.47;;
59306;SDS011;47983;53.016;-2.260;2023-08-06T03:23:29;13.68;;;5.20;;
59306;SDS011;47983;53.016;-2.260;2023-08-06T03:26:01;11.35;;;4.82;;
59306;SDS011;47983;53.016;-2.260;2023-08-06T03:28:31;14.18;;;5.07;;
59306;SDS011;47983;53.016;-2.260;2023-08-06T03:31:00;10.88;;;5.07;;
59306;SDS011;47983;53.016;-2.260;2023-08-06T03:33:36;17.98;;;5.63;;
59306;SDS011;47983;53.016;-2.260;2023-08-06T03:36:08;10.70;;;4.72;;
59306;SDS011;47983;53.016;-2.260;2023-08-06T03:38:36;12.13;;;5.57;;
59306;SDS011;47983;53.016;-2.260;2023-08-06T03:41:06;14.68;;;5.55;;
59306;SDS011;47983;53.016;-2.260;2023-08-06T03:43:34;10.93;;;5.10;;
59306;SDS011;47983;53.016;-2.260;2023-08-06T03:46:05;14.30;;;5.35;;
59306;SDS011;47983;53.016;-2.260;2023-08-06T03:48:33;15.07;;;5.18;;
59306;SDS011;47983;53.016;-2.260;2023-08-06T03:51:01;12.18;;;4.82;;
59306;SDS011;47983;53.016;-2.260;2023-08-06T03:53:29;14.30;;;5.18;;
59306;SDS011;47983;53.016;-2.260;2023-08-06T03:55:57;12.98;;;5.35;;
59306;SDS011;47983;53.016;-2.260;2023-08-06T03:58:28;11.07;;;4.45;;
59306;SDS011;47983;53.016;-2.260;2023-08-06T04:00:58;9.55;;;4.43;;
59306;SDS011;47983;53.016;-2.260;2023-08-06T04:03:31;10.85;;;4.20;;
59306;SDS011;47983;53.016;-2.260;2023-08-06T04:05:59;12.25;;;4.40;;
59306;SDS011;47983;53.016;-2.260;2023-08-06T04:08:28;10.10;;;3.78;;
59306;SDS011;47983;53.016;-2.260;2023-08-06T04:10:56;8.98;;;3.78;;
59306;SDS011;47983;53.016;-2.260;2023-08-06T04:13:23;11.05;;;3.83;;
59306;SDS011;47983;53.016;-2.260;2023-08-06T04:15:51;5.38;;;2.95;;
59306;SDS011;47983;53.016;-2.260;2023-08-06T04:18:19;11.60;;;3.13;;
59306;SDS011;47983;53.016;-2.260;2023-08-06T04:20:47;11.45;;;3.33;;
59306;SDS011;47983;53.016;-2.260;2023-08-06T04:23:16;8.35;;;3.25;;
59306;SDS011;47983;53.016;-2.260;2023-08-06T04:25:44;10.73;;;3.53;;
59306;SDS011;47983;53.016;-2.260;2023-08-06T04:28:13;6.53;;;3.40;;
59306;SDS011;47983;53.016;-2.260;2023-08-06T04:30:41;11.45;;;3.28;;
59306;SDS011;47983;53.016;-2.260;2023-08-06T04:33:09;10.45;;;3.17;;
59306;SDS011;47983;53.016;-2.260;2023-08-06T04:35:37;10.68;;;3.35;;
59306;SDS011;47983;53.016;-2.260;2023-08-06T04:38:05;8.10;;;3.97;;
59306;SDS011;47983;53.016;-2.260;2023-08-06T04:40:33;10.93;;;3.65;;
59306;SDS011;47983;53.016;-2.260;2023-08-06T04:43:02;10.05;;;4.28;;
59306;SDS011;47983;53.016;-2.260;2023-08-06T04:45:33;9.23;;;4.07;;
59306;SDS011;47983;53.016;-2.260;2023-08-06T04:48:01;10.38;;;4.05;;
59306;SDS011;47983;53.016;-2.260;2023-08-06T04:50:28;11.13;;;3.75;;
59306;SDS011;47983;53.016;-2.260;2023-08-06T04:52:56;10.57;;;3.58;;
59306;SDS011;47983;53.016;-2.260;2023-08-06T04:55:24;13.20;;;3.88;;
59306;SDS011;47983;53.016;-2.260;2023-08-06T04:57:51;8.05;;;3.88;;
59306;SDS011;47983;53.016;-2.260;2023-08-06T05:00:19;13.07;;;4.10;;
59306;SDS011;47983;53.016;-2.260;2023-08-06T05:02:47;9.20;;;3.72;;
59306;SDS011;47983;53.016;-2.260;2023-08-06T05:05:15;11.90;;;3.92;;
59306;SDS011;47983;53.016;-2.260;2023-08-06T05:07:42;11.50;;;3.65;;
59306;SDS011;47983;53.016;-2.260;2023-08-06T05:10:10;13.40;;;3.65;;
59306;SDS011;47983;53.016;-2.260;2023-08-06T05:12:38;8.52;;;3.80;;
59306;SDS011;47983;53.016;-2.260;2023-08-06T05:15:05;10.90;;;4.05;;
59306;SDS011;47983;53.016;-2.260;2023-08-06T05:17:34;8.48;;;4.22;;
59306;SDS011;47983;53.016;-2.260;2023-08-06T05:20:01;8.88;;;4.50;;
59306;SDS011;47983;53.016;-2.260;2023-08-06T05:22:30;14.82;;;7.03;;
59306;SDS011;47983;53.016;-2.260;2023-08-06T05:24:57;12.45;;;7.47;;
59306;SDS011;47983;53.016;-2.260;2023-08-06T05:27:25;17.20;;;8.07;;
59306;SDS011;47983;53.016;-2.260;2023-08-06T05:29:54;14.13;;;8.32;;
59306;SDS011;47983;53.016;-2.260;2023-08-06T05:32:24;16.85;;;8.30;;
59306;SDS011;47983;53.016;-2.260;2023-08-06T05:34:52;12.20;;;7.30;;
59306;SDS011;47983;53.016;-2.260;2023-08-06T05:37:21;12.32;;;7.90;;
59306;SDS011;47983;53.016;-2.260;2023-08-06T05:39:48;14.15;;;8.43;;
59306;SDS011;47983;53.016;-2.260;2023-08-06T05:42:16;14.00;;;8.27;;
59306;SDS011;47983;53.016;-2.260;2023-08-06T05:44:44;14.25;;;7.30;;
59306;SDS011;47983;53.016;-2.260;2023-08-06T05:47:12;13.15;;;6.05;;
59306;SDS011;47983;53.016;-2.260;2023-08-06T05:49:39;12.15;;;6.20;;
59306;SDS011;47983;53.016;-2.260;2023-08-06T05:52:07;8.57;;;6.07;;
59306;SDS011;47983;53.016;-2.260;2023-08-06T05:54:35;10.20;;;5.22;;
59306;SDS011;47983;53.016;-2.260;2023-08-06T05:57:03;9.90;;;5.45;;
59306;SDS011;47983;53.016;-2.260;2023-08-06T05:59:31;9.25;;;4.70;;
59306;SDS011;47983;53.016;-2.260;2023-08-06T06:01:59;9.27;;;4.50;;
59306;SDS011;47983;53.016;-2.260;2023-08-06T06:04:27;8.35;;;3.30;;
59306;SDS011;47983;53.016;-2.260;2023-08-06T06:06:55;10.93;;;3.88;;
59306;SDS011;47983;53.016;-2.260;2023-08-06T06:09:23;5.88;;;3.25;;
59306;SDS011;47983;53.016;-2.260;2023-08-06T06:11:51;7.03;;;2.58;;
59306;SDS011;47983;53.016;-2.260;2023-08-06T06:14:19;6.45;;;2.28;;
59306;SDS011;47983;53.016;-2.260;2023-08-06T06:16:47;6.93;;;2.22;;
59306;SDS011;47983;53.016;-2.260;2023-08-06T06:19:14;4.90;;;2.80;;
59306;SDS011;47983;53.016;-2.260;2023-08-06T06:21:42;4.25;;;2.53;;
59306;SDS011;47983;53.016;-2.260;2023-08-06T06:24:10;5.78;;;2.80;;
59306;SDS011;47983;53.016;-2.260;2023-08-06T06:26:37;7.60;;;2.97;;
59306;SDS011;47983;53.016;-2.260;2023-08-06T06:29:06;6.95;;;3.38;;
59306;SDS011;47983;53.016;-2.260;2023-08-06T06:31:34;5.25;;;3.22;;
59306;SDS011;47983;53.016;-2.260;2023-08-06T06:34:02;5.43;;;3.55;;
59306;SDS011;47983;53.016;-2.260;2023-08-06T06:36:30;7.18;;;3.10;;
59306;SDS011;47983;53.016;-2.260;2023-08-06T06:38:57;6.85;;;2.80;;
59306;SDS011;47983;53.016;-2.260;2023-08-06T06:41:25;12.07;;;3.67;;
59306;SDS011;47983;53.016;-2.260;2023-08-06T06:43:56;7.63;;;3.05;;
59306;SDS011;47983;53.016;-2.260;2023-08-06T06:46:26;4.65;;;2.85;;
59306;SDS011;47983;53.016;-2.260;2023-08-06T06:48:54;5.10;;;2.80;;
59306;SDS011;47983;53.016;-2.260;2023-08-06T06:51:25;6.80;;;2.22;;
59306;SDS011;47983;53.016;-2.260;2023-08-06T06:53:52;7.88;;;2.60;;
59306;SDS011;47983;53.016;-2.260;2023-08-06T06:56:20;4.43;;;2.45;;
59306;SDS011;47983;53.016;-2.260;2023-08-06T06:58:48;4.38;;;2.25;;
59306;SDS011;47983;53.016;-2.260;2023-08-06T07:01:16;4.10;;;2.60;;
59306;SDS011;47983;53.016;-2.260;2023-08-06T07:03:44;6.60;;;3.00;;
59306;SDS011;47983;53.016;-2.260;2023-08-06T07:06:11;4.45;;;2.35;;
59306;SDS011;47983;53.016;-2.260;2023-08-06T07:08:39;6.68;;;2.60;;
59306;SDS011;47983;53.016;-2.260;2023-08-06T07:11:07;3.58;;;2.65;;
59306;SDS011;47983;53.016;-2.260;2023-08-06T07:13:35;4.68;;;2.30;;
59306;SDS011;47983;53.016;-2.260;2023-08-06T07:16:03;7.57;;;2.33;;
59306;SDS011;47983;53.016;-2.260;2023-08-06T07:18:31;5.07;;;2.08;;
59306;SDS011;47983;53.016;-2.260;2023-08-06T07:20:58;4.22;;;1.90;;
59306;SDS011;47983;53.016;-2.260;2023-08-06T07:23:26;5.43;;;2.53;;
59306;SDS011;47983;53.016;-2.260;2023-08-06T07:25:54;4.13;;;2.63;;
59306;SDS011;47983;53.016;-2.260;2023-08-06T07:28:24;3.22;;;2.10;;
59306;SDS011;47983;53.016;-2.260;2023-08-06T07:30:55;5.40;;;2.40;;
59306;SDS011;47983;53.016;-2.260;2023-08-06T07:33:23;5.57;;;2.33;;
59306;SDS011;47983;53.016;-2.260;2023-08-06T07:35:52;5.32;;;1.90;;
59306;SDS011;47983;53.016;-2.260;2023-08-06T07:38:20;4.95;;;2.90;;
59306;SDS011;47983;53.016;-2.260;2023-08-06T07:40:48;2.72;;;1.90;;
59306;SDS011;47983;53.016;-2.260;2023-08-06T07:43:19;2.30;;;1.60;;
59306;SDS011;47983;53.016;-2.260;2023-08-06T07:45:47;4.82;;;2.30;;
59306;SDS011;47983;53.016;-2.260;2023-08-06T07:48:14;4.53;;;2.22;;
59306;SDS011;47983;53.016;-2.260;2023-08-06T07:50:42;6.40;;;2.13;;
59306;SDS011;47983;53.016;-2.260;2023-08-06T07:53:17;4.28;;;2.17;;
59306;SDS011;47983;53.016;-2.260;2023-08-06T07:55:47;5.50;;;2.00;;
59306;SDS011;47983;53.016;-2.260;2023-08-06T07:58:16;4.30;;;1.73;;
59306;SDS011;47983;53.016;-2.260;2023-08-06T08:00:44;6.00;;;1.73;;
59306;SDS011;47983;53.016;-2.260;2023-08-06T08:03:13;2.17;;;1.50;;
59306;SDS011;47983;53.016;-2.260;2023-08-06T08:05:42;4.18;;;1.95;;
59306;SDS011;47983;53.016;-2.260;2023-08-06T08:08:10;6.53;;;2.20;;
59306;SDS011;47983;53.016;-2.260;2023-08-06T08:10:38;5.85;;;3.20;;
59306;SDS011;47983;53.016;-2.260;2023-08-06T08:13:06;6.20;;;2.33;;
59306;SDS011;47983;53.016;-2.260;2023-08-06T08:15:34;7.10;;;2.55;;
59306;SDS011;47983;53.016;-2.260;2023-08-06T08:18:02;6.18;;;2.30;;
59306;SDS011;47983;53.016;-2.260;2023-08-06T08:20:30;5.75;;;2.33;;
59306;SDS011;47983;53.016;-2.260;2023-08-06T08:23:02;5.18;;;2.88;;
59306;SDS011;47983;53.016;-2.260;2023-08-06T08:25:30;6.85;;;3.10;;
59306;SDS011;47983;53.016;-2.260;2023-08-06T08:27:58;4.53;;;2.47;;
59306;SDS011;47983;53.016;-2.260;2023-08-06T08:30:26;7.88;;;2.30;;
59306;SDS011;47983;53.016;-2.260;2023-08-06T08:32:54;7.15;;;2.88;;
59306;SDS011;47983;53.016;-2.260;2023-08-06T08:35:22;6.38;;;2.10;;
59306;SDS011;47983;53.016;-2.260;2023-08-06T08:37:51;5.75;;;2.13;;
59306;SDS011;47983;53.016;-2.260;2023-08-06T08:40:18;4.10;;;1.90;;
59306;SDS011;47983;53.016;-2.260;2023-08-06T08:42:50;4.65;;;1.60;;
59306;SDS011;47983;53.016;-2.260;2023-08-06T08:45:18;3.80;;;1.40;;
59306;SDS011;47983;53.016;-2.260;2023-08-06T08:47:49;5.63;;;1.40;;
59306;SDS011;47983;53.016;-2.260;2023-08-06T08:50:17;3.00;;;1.40;;
59306;SDS011;47983;53.016;-2.260;2023-08-06T08:52:46;2.13;;;1.20;;
59306;SDS011;47983;53.016;-2.260;2023-08-06T08:55:15;4.13;;;1.37;;
59306;SDS011;47983;53.016;-2.260;2023-08-06T08:57:43;6.65;;;1.35;;
59306;SDS011;47983;53.016;-2.260;2023-08-06T09:00:12;4.97;;;1.55;;
59306;SDS011;47983;53.016;-2.260;2023-08-06T09:02:41;3.58;;;1.38;;
59306;SDS011;47983;53.016;-2.260;2023-08-06T09:05:10;5.03;;;1.40;;
59306;SDS011;47983;53.016;-2.260;2023-08-06T09:07:41;1.48;;;0.82;;
59306;SDS011;47983;53.016;-2.260;2023-08-06T09:10:13;4.38;;;1.40;;
59306;SDS011;47983;53.016;-2.260;2023-08-06T09:12:45;2.75;;;1.20;;
59306;SDS011;47983;53.016;-2.260;2023-08-06T09:15:13;3.40;;;1.30;;
59306;SDS011;47983;53.016;-2.260;2023-08-06T09:17:41;3.53;;;1.55;;
59306;SDS011;47983;53.016;-2.260;2023-08-06T09:20:12;2.05;;;0.93;;
59306;SDS011;47983;53.016;-2.260;2023-08-06T09:22:41;4.93;;;1.15;;
59306;SDS011;47983;53.016;-2.260;2023-08-06T09:25:09;1.13;;;0.95;;
59306;SDS011;47983;53.016;-2.260;2023-08-06T09:27:37;4.07;;;1.30;;
59306;SDS011;47983;53.016;-2.260;2023-08-06T09:30:05;3.08;;;1.20;;
59306;SDS011;47983;53.016;-2.260;2023-08-06T09:32:46;4.20;;;1.65;;
59306;SDS011;47983;53.016;-2.260;2023-08-06T09:35:15;3.38;;;1.10;;
59306;SDS011;47983;53.016;-2.260;2023-08-06T09:37:44;4.47;;;1.73;;
59306;SDS011;47983;53.016;-2.260;2023-08-06T09:40:25;2.92;;;1.67;;
59306;SDS011;47983;53.016;-2.260;2023-08-06T09:42:59;3.05;;;1.50;;
59306;SDS011;47983;53.016;-2.260;2023-08-06T09:45:35;4.57;;;1.75;;
59306;SDS011;47983;53.016;-2.260;2023-08-06T09:48:08;4.82;;;1.52;;
59306;SDS011;47983;53.016;-2.260;2023-08-06T09:50:37;4.82;;;1.60;;
59306;SDS011;47983;53.016;-2.260;2023-08-06T09:53:06;5.33;;;1.87;;
59306;SDS011;47983;53.016;-2.260;2023-08-06T09:55:36;4.60;;;1.90;;
59306;SDS011;47983;53.016;-2.260;2023-08-06T09:58:04;3.58;;;1.27;;
59306;SDS011;47983;53.016;-2.260;2023-08-06T10:00:33;13.70;;;1.90;;
59306;SDS011;47983;53.016;-2.260;2023-08-06T10:03:06;6.75;;;2.05;;
59306;SDS011;47983;53.016;-2.260;2023-08-06T10:05:35;4.80;;;1.30;;
59306;SDS011;47983;53.016;-2.260;2023-08-06T10:08:04;3.85;;;1.60;;
59306;SDS011;47983;53.016;-2.260;2023-08-06T10:13:01;4.05;;;1.40;;
59306;SDS011;47983;53.016;-2.260;2023-08-06T10:15:31;3.47;;;1.45;;
59306;SDS011;47983;53.016;-2.260;2023-08-06T10:17:59;3.78;;;1.40;;
59306;SDS011;47983;53.016;-2.260;2023-08-06T10:20:32;3.17;;;1.25;;
59306;SDS011;47983;53.016;-2.260;2023-08-06T10:23:04;8.38;;;1.65;;
59306;SDS011;47983;53.016;-2.260;2023-08-06T10:25:35;4.75;;;1.50;;
59306;SDS011;47983;53.016;-2.260;2023-08-06T10:28:07;3.72;;;1.67;;
59306;SDS011;47983;53.016;-2.260;2023-08-06T10:30:47;4.55;;;1.52;;
59306;SDS011;47983;53.016;-2.260;2023-08-06T10:33:15;3.17;;;1.20;;
59306;SDS011;47983;53.016;-2.260;2023-08-06T10:35:47;2.47;;;1.25;;
59306;SDS011;47983;53.016;-2.260;2023-08-06T10:38:17;2.88;;;1.13;;
59306;SDS011;47983;53.016;-2.260;2023-08-06T10:40:49;1.50;;;0.95;;
59306;SDS011;47983;53.016;-2.260;2023-08-06T10:46:10;5.38;;;1.10;;
59306;SDS011;47983;53.016;-2.260;2023-08-06T10:48:48;2.63;;;1.00;;
59306;SDS011;47983;53.016;-2.260;2023-08-06T10:51:15;1.63;;;0.80;;
59306;SDS011;47983;53.016;-2.260;2023-08-06T10:53:46;2.58;;;1.27;;
59306;SDS011;47983;53.016;-2.260;2023-08-06T10:56:15;3.63;;;1.25;;
59306;SDS011;47983;53.016;-2.260;2023-08-06T10:58:45;4.13;;;1.30;;
59306;SDS011;47983;53.016;-2.260;2023-08-06T11:01:13;5.85;;;1.80;;
59306;SDS011;47983;53.016;-2.260;2023-08-06T11:03:42;5.70;;;1.30;;
59306;SDS011;47983;53.016;-2.260;2023-08-06T11:06:16;5.72;;;1.52;;
59306;SDS011;47983;53.016;-2.260;2023-08-06T11:08:49;3.35;;;1.73;;
59306;SDS011;47983;53.016;-2.260;2023-08-06T11:11:18;5.05;;;1.55;;
59306;SDS011;47983;53.016;-2.260;2023-08-06T11:13:48;4.65;;;1.42;;
59306;SDS011;47983;53.016;-2.260;2023-08-06T11:16:17;3.72;;;1.33;;
59306;SDS011;47983;53.016;-2.260;2023-08-06T11:21:14;1.60;;;1.20;;
59306;SDS011;47983;53.016;-2.260;2023-08-06T11:23:46;3.15;;;1.30;;
59306;SDS011;47983;53.016;-2.260;2023-08-06T11:26:21;1.70;;;1.10;;
59306;SDS011;47983;53.016;-2.260;2023-08-06T11:28:51;4.60;;;1.38;;
59306;SDS011;47983;53.016;-2.260;2023-08-06T11:31:19;2.55;;;0.98;;
59306;SDS011;47983;53.016;-2.260;2023-08-06T11:33:51;4.53;;;1.38;;
59306;SDS011;47983;53.016;-2.260;2023-08-06T11:36:32;6.97;;;1.40;;
59306;SDS011;47983;53.016;-2.260;2023-08-06T11:39:01;4.15;;;1.30;;
59306;SDS011;47983;53.016;-2.260;2023-08-06T11:41:30;2.70;;;1.10;;
59306;SDS011;47983;53.016;-2.260;2023-08-06T11:43:58;1.40;;;1.00;;
59306;SDS011;47983;53.016;-2.260;2023-08-06T11:46:26;2.13;;;0.95;;
59306;SDS011;47983;53.016;-2.260;2023-08-06T11:48:55;2.58;;;0.95;;
59306;SDS011;47983;53.016;-2.260;2023-08-06T11:51:24;1.98;;;0.80;;
59306;SDS011;47983;53.016;-2.260;2023-08-06T11:53:59;4.40;;;1.10;;
59306;SDS011;47983;53.016;-2.260;2023-08-06T11:56:27;2.20;;;0.98;;
59306;SDS011;47983;53.016;-2.260;2023-08-06T11:58:55;2.08;;;1.15;;
59306;SDS011;47983;53.016;-2.260;2023-08-06T12:01:23;3.40;;;1.00;;
59306;SDS011;47983;53.016;-2.260;2023-08-06T12:03:51;4.70;;;1.30;;
59306;SDS011;47983;53.016;-2.260;2023-08-06T12:06:19;1.67;;;0.93;;
59306;SDS011;47983;53.016;-2.260;2023-08-06T12:08:47;6.25;;;0.80;;
59306;SDS011;47983;53.016;-2.260;2023-08-06T12:11:15;2.80;;;1.20;;
59306;SDS011;47983;53.016;-2.260;2023-08-06T12:13:42;2.95;;;0.82;;
59306;SDS011;47983;53.016;-2.260;2023-08-06T12:16:10;1.23;;;0.90;;
59306;SDS011;47983;53.016;-2.260;2023-08-06T12:18:41;2.75;;;1.00;;
59306;SDS011;47983;53.016;-2.260;2023-08-06T12:21:09;2.35;;;0.73;;
59306;SDS011;47983;53.016;-2.260;2023-08-06T12:23:37;2.58;;;1.02;;
59306;SDS011;47983;53.016;-2.260;2023-08-06T12:26:04;3.35;;;1.02;;
59306;SDS011;47983;53.016;-2.260;2023-08-06T12:28:32;1.98;;;1.05;;
59306;SDS011;47983;53.016;-2.260;2023-08-06T12:31:00;3.78;;;1.40;;
59306;SDS011;47983;53.016;-2.260;2023-08-06T12:33:28;6.32;;;1.50;;
59306;SDS011;47983;53.016;-2.260;2023-08-06T12:35:55;5.30;;;2.08;;
59306;SDS011;47983;53.016;-2.260;2023-08-06T12:38:24;7.35;;;1.38;;
59306;SDS011;47983;53.016;-2.260;2023-08-06T12:40:53;5.65;;;1.70;;
59306;SDS011;47983;53.016;-2.260;2023-08-06T12:43:21;2.85;;;1.17;;
59306;SDS011;47983;53.016;-2.260;2023-08-06T12:45:48;2.83;;;1.27;;
59306;SDS011;47983;53.016;-2.260;2023-08-06T12:48:16;2.63;;;0.85;;
59306;SDS011;47983;53.016;-2.260;2023-08-06T12:50:44;2.10;;;1.23;;
59306;SDS011;47983;53.016;-2.260;2023-08-06T12:53:12;2.58;;;0.90;;
59306;SDS011;47983;53.016;-2.260;2023-08-06T12:55:40;1.63;;;1.08;;
59306;SDS011;47983;53.016;-2.260;2023-08-06T12:58:08;5.70;;;1.00;;
59306;SDS011;47983;53.016;-2.260;2023-08-06T13:00:36;3.20;;;1.00;;
59306;SDS011;47983;53.016;-2.260;2023-08-06T13:03:04;5.15;;;1.00;;
59306;SDS011;47983;53.016;-2.260;2023-08-06T13:05:32;2.33;;;0.90;;
59306;SDS011;47983;53.016;-2.260;2023-08-06T13:07:59;2.13;;;0.90;;
59306;SDS011;47983;53.016;-2.260;2023-08-06T13:10:27;2.15;;;1.20;;
59306;SDS011;47983;53.016;-2.260;2023-08-06T13:12:56;7.07;;;1.48;;
59306;SDS011;47983;53.016;-2.260;2023-08-06T13:15:23;4.03;;;1.33;;
59306;SDS011;47983;53.016;-2.260;2023-08-06T13:17:51;2.80;;;1.02;;
59306;SDS011;47983;53.016;-2.260;2023-08-06T13:20:19;2.08;;;1.40;;
59306;SDS011;47983;53.016;-2.260;2023-08-06T13:22:48;4.53;;;1.80;;
59306;SDS011;47983;53.016;-2.260;2023-08-06T13:27:46;3.42;;;1.67;;
59306;SDS011;47983;53.016;-2.260;2023-08-06T13:30:15;2.50;;;1.73;;
59306;SDS011;47983;53.016;-2.260;2023-08-06T13:32:45;2.30;;;1.85;;
59306;SDS011;47983;53.016;-2.260;2023-08-06T13:35:14;6.50;;;1.92;;
59306;SDS011;47983;53.016;-2.260;2023-08-06T13:37:42;2.63;;;1.10;;
59306;SDS011;47983;53.016;-2.260;2023-08-06T13:40:10;4.22;;;1.38;;
59306;SDS011;47983;53.016;-2.260;2023-08-06T13:42:38;11.75;;;1.55;;
59306;SDS011;47983;53.016;-2.260;2023-08-06T13:45:06;1.85;;;1.13;;
59306;SDS011;47983;53.016;-2.260;2023-08-06T13:47:34;6.68;;;1.40;;
59306;SDS011;47983;53.016;-2.260;2023-08-06T13:50:02;1.98;;;1.27;;
59306;SDS011;47983;53.016;-2.260;2023-08-06T13:52:30;4.85;;;1.27;;
59306;SDS011;47983;53.016;-2.260;2023-08-06T13:54:58;2.35;;;1.20;;
59306;SDS011;47983;53.016;-2.260;2023-08-06T13:57:26;5.13;;;1.40;;
59306;SDS011;47983;53.016;-2.260;2023-08-06T13:59:54;3.33;;;1.20;;
59306;SDS011;47983;53.016;-2.260;2023-08-06T14:02:22;1.77;;;1.20;;
59306;SDS011;47983;53.016;-2.260;2023-08-06T14:04:51;1.58;;;1.20;;
59306;SDS011;47983;53.016;-2.260;2023-08-06T14:07:20;5.18;;;0.90;;
59306;SDS011;47983;53.016;-2.260;2023-08-06T14:09:52;2.65;;;0.88;;
59306;SDS011;47983;53.016;-2.260;2023-08-06T14:12:19;5.68;;;1.20;;
59306;SDS011;47983;53.016;-2.260;2023-08-06T14:14:47;5.05;;;0.95;;
59306;SDS011;47983;53.016;-2.260;2023-08-06T14:17:15;5.03;;;1.27;;
59306;SDS011;47983;53.016;-2.260;2023-08-06T14:19:43;6.57;;;2.35;;
59306;SDS011;47983;53.016;-2.260;2023-08-06T14:22:11;3.22;;;1.35;;
59306;SDS011;47983;53.016;-2.260;2023-08-06T14:24:38;2.53;;;1.10;;
59306;SDS011;47983;53.016;-2.260;2023-08-06T14:27:06;3.72;;;1.10;;
59306;SDS011;47983;53.016;-2.260;2023-08-06T14:29:34;4.13;;;0.90;;
59306;SDS011;47983;53.016;-2.260;2023-08-06T14:32:02;3.92;;;1.00;;
59306;SDS011;47983;53.016;-2.260;2023-08-06T14:34:29;3.25;;;1.02;;
59306;SDS011;47983;53.016;-2.260;2023-08-06T14:36:58;1.23;;;0.88;;
59306;SDS011;47983;53.016;-2.260;2023-08-06T14:39:26;2.38;;;1.10;;
59306;SDS011;47983;53.016;-2.260;2023-08-06T14:41:54;2.33;;;1.05;;
59306;SDS011;47983;53.016;-2.260;2023-08-06T14:44:21;3.17;;;1.10;;
59306;SDS011;47983;53.016;-2.260;2023-08-06T14:46:49;2.22;;;0.73;;
59306;SDS011;47983;53.016;-2.260;2023-08-06T14:49:17;2.55;;;0.98;;
59306;SDS011;47983;53.016;-2.260;2023-08-06T14:51:45;2.45;;;1.00;;
59306;SDS011;47983;53.016;-2.260;2023-08-06T14:54:13;1.77;;;0.90;;
59306;SDS011;47983;53.016;-2.260;2023-08-06T14:56:40;1.27;;;0.98;;
59306;SDS011;47983;53.016;-2.260;2023-08-06T14:59:08;1.38;;;0.90;;
59306;SDS011;47983;53.016;-2.260;2023-08-06T15:01:36;2.90;;;0.80;;